createdAt,value
2023-04-06T00:01:45.547Z,0.13
2023-04-06T00:04:12.332Z,0.13
2023-04-06T00:06:39.078Z,0.08
2023-04-06T00:09:22.750Z,0.03
2023-04-06T00:11:51.728Z,0.01
2023-04-06T00:14:18.583Z,0.05
2023-04-06T00:16:45.507Z,0.05
2023-04-06T00:19:12.395Z,-0.06
2023-04-06T00:21:39.437Z,-0.06
2023-04-06T00:24:06.607Z,0.09
2023-04-06T00:26:33.250Z,0.07
2023-04-06T00:29:00.092Z,0.01
2023-04-06T00:31:26.793Z,-0.09
2023-04-06T00:33:53.472Z,-0.16
2023-04-06T00:36:20.511Z,-0.15
2023-04-06T00:38:47.188Z,-0.01
2023-04-06T00:41:14.692Z,-0.02
2023-04-06T00:43:41.294Z,-0.08
2023-04-06T00:46:07.960Z,-0.14
2023-04-06T00:48:34.644Z,-0.10
2023-04-06T00:51:02.887Z,-0.11
2023-04-06T00:53:29.510Z,-0.00
2023-04-06T00:55:56.100Z,0.11
2023-04-06T00:58:22.823Z,0.07
2023-04-06T01:00:49.555Z,-0.00
2023-04-06T01:03:17.001Z,-0.09
2023-04-06T01:05:45.069Z,-0.21
2023-04-06T01:08:12.507Z,-0.30
2023-04-06T01:10:46.900Z,-0.25
2023-04-06T01:13:13.571Z,-0.37
2023-04-06T01:15:40.663Z,-0.43
2023-04-06T01:18:10.117Z,-0.42
2023-04-06T01:20:37.379Z,-0.46
2023-04-06T01:23:04.028Z,-0.51
2023-04-06T01:25:38.133Z,-0.53
2023-04-06T01:28:04.832Z,-0.55
2023-04-06T01:30:31.606Z,-0.49
2023-04-06T01:32:58.314Z,-0.46
2023-04-06T01:35:27.626Z,-0.41
2023-04-06T01:37:54.445Z,-0.51
2023-04-06T01:40:21.832Z,-0.62
2023-04-06T01:42:48.448Z,-0.55
2023-04-06T01:45:15.568Z,-0.55
2023-04-06T01:47:42.746Z,-0.55
2023-04-06T01:50:14.232Z,-0.44
2023-04-06T01:52:42.161Z,-0.45
2023-04-06T01:55:11.866Z,-0.44
2023-04-06T01:57:39.682Z,-0.55
2023-04-06T02:00:09.477Z,-0.64
2023-04-06T02:02:36.378Z,-0.65
2023-04-06T02:05:03.155Z,-0.65
2023-04-06T02:07:29.811Z,-0.70
2023-04-06T02:09:57.283Z,-0.73
2023-04-06T02:12:24.937Z,-0.66
2023-04-06T02:15:11.704Z,-0.71
2023-04-06T02:17:38.420Z,-0.65
2023-04-06T02:20:05.727Z,-0.60
2023-04-06T02:22:32.388Z,-0.52
2023-04-06T02:24:59.030Z,-0.51
2023-04-06T02:27:28.352Z,-0.47
2023-04-06T02:29:54.975Z,-0.42
2023-04-06T02:32:25.096Z,-0.36
2023-04-06T02:34:53.455Z,-0.34
2023-04-06T02:37:20.320Z,-0.56
2023-04-06T02:39:47.607Z,-0.68
2023-04-06T02:42:18.026Z,-0.71
2023-04-06T02:44:44.849Z,-0.76
2023-04-06T02:47:16.325Z,-0.85
2023-04-06T02:49:43.006Z,-0.80
2023-04-06T02:52:11.896Z,-0.79
2023-04-06T02:54:38.518Z,-0.86
2023-04-06T02:57:22.411Z,-0.85
2023-04-06T02:59:49.454Z,-0.79
2023-04-06T03:02:16.338Z,-0.81
2023-04-06T03:04:45.448Z,-0.81
2023-04-06T03:07:22.243Z,-0.81
2023-04-06T03:09:48.928Z,-0.85
2023-04-06T03:12:15.541Z,-0.94
2023-04-06T03:14:42.155Z,-0.98
2023-04-06T03:17:10.598Z,-1.09
2023-04-06T03:19:37.539Z,-1.06
2023-04-06T03:22:04.134Z,-0.88
2023-04-06T03:24:30.771Z,-0.77
2023-04-06T03:26:57.590Z,-0.72
2023-04-06T03:29:24.226Z,-0.76
2023-04-06T03:31:51.015Z,-0.85
2023-04-06T03:34:17.617Z,-1.00
2023-04-06T03:36:44.209Z,-1.11
2023-04-06T03:39:10.872Z,-1.15
2023-04-06T03:41:37.559Z,-1.22
2023-04-06T03:44:06.947Z,-1.20
2023-04-06T03:46:33.620Z,-1.20
2023-04-06T03:49:01.878Z,-1.30
2023-04-06T03:51:40.363Z,-1.30
2023-04-06T03:54:07.004Z,-1.27
2023-04-06T03:56:33.586Z,-1.25
2023-04-06T03:59:00.428Z,-1.30
2023-04-06T04:01:27.093Z,-1.32
2023-04-06T04:03:54.549Z,-1.37
2023-04-06T04:06:21.601Z,-1.47
2023-04-06T04:08:54.740Z,-1.49
2023-04-06T04:11:21.459Z,-1.34
2023-04-06T04:13:48.270Z,-1.25
2023-04-06T04:16:14.987Z,-1.21
2023-04-06T04:18:44.447Z,-1.10
2023-04-06T04:21:11.027Z,-1.04
2023-04-06T04:23:37.752Z,-0.96
2023-04-06T04:26:07.542Z,-0.85
2023-04-06T04:28:36.647Z,-0.84
2023-04-06T04:31:03.321Z,-1.01
2023-04-06T04:33:29.959Z,-1.13
2023-04-06T04:35:56.655Z,-1.24
2023-04-06T04:38:23.385Z,-1.30
2023-04-06T04:41:03.145Z,-1.30
2023-04-06T04:43:31.391Z,-1.18
2023-04-06T04:46:00.192Z,-1.31
2023-04-06T04:48:27.105Z,-1.26
2023-04-06T04:50:53.822Z,-1.35
2023-04-06T04:53:20.409Z,-1.45
2023-04-06T04:55:47.041Z,-1.50
2023-04-06T04:58:17.541Z,-1.52
2023-04-06T05:00:44.930Z,-1.44
2023-04-06T05:03:22.279Z,-1.44
2023-04-06T05:05:49.113Z,-1.41
2023-04-06T05:08:16.733Z,-1.32
2023-04-06T05:10:45.298Z,-1.34
2023-04-06T05:13:12.407Z,-1.35
2023-04-06T05:15:39.327Z,-1.45
2023-04-06T05:18:13.388Z,-1.53
2023-04-06T05:20:40.374Z,-1.53
2023-04-06T05:23:18.841Z,-1.57
2023-04-06T05:25:45.684Z,-1.48
2023-04-06T05:28:15.261Z,-1.40
2023-04-06T05:30:42.153Z,-1.42
2023-04-06T05:33:09.078Z,-1.31
2023-04-06T05:35:35.957Z,-1.17
2023-04-06T05:38:02.635Z,-1.10
2023-04-06T05:40:29.479Z,-1.22
2023-04-06T05:42:56.360Z,-1.21
2023-04-06T05:45:23.096Z,-1.15
2023-04-06T05:47:56.895Z,-1.05
2023-04-06T05:50:25.918Z,-0.96
2023-04-06T05:52:52.656Z,-0.97
2023-04-06T05:55:19.434Z,-0.98
2023-04-06T05:57:46.108Z,-1.13
2023-04-06T06:00:24.889Z,-1.09
2023-04-06T06:02:51.535Z,-0.98
2023-04-06T06:05:18.292Z,-0.91
2023-04-06T06:07:48.055Z,-0.99
2023-04-06T06:10:14.760Z,-0.90
2023-04-06T06:12:41.468Z,-0.82
2023-04-06T06:15:08.559Z,-0.92
2023-04-06T06:17:44.398Z,-0.92
2023-04-06T06:20:11.695Z,-0.96
2023-04-06T06:22:38.443Z,-0.90
2023-04-06T06:25:05.254Z,-0.83
2023-04-06T06:27:34.564Z,-0.82
2023-04-06T06:30:01.329Z,-0.66
2023-04-06T06:32:28.021Z,-0.64
2023-04-06T06:34:56.427Z,-0.55
2023-04-06T06:37:25.830Z,-0.46
2023-04-06T06:39:55.485Z,-0.52
2023-04-06T06:42:22.149Z,-0.53
2023-04-06T06:44:48.799Z,-0.49
2023-04-06T06:47:36.782Z,-0.56
2023-04-06T06:50:04.238Z,-0.42
2023-04-06T06:52:38.929Z,-0.39
2023-04-06T06:55:05.978Z,-0.33
2023-04-06T06:57:32.657Z,-0.18
2023-04-06T07:00:00.879Z,-0.05
2023-04-06T07:02:27.636Z,0.17
2023-04-06T07:04:54.481Z,0.34
2023-04-06T07:07:21.324Z,0.48
2023-04-06T07:09:54.203Z,0.57
2023-04-06T07:12:20.861Z,0.74
2023-04-06T07:14:47.898Z,0.92
2023-04-06T07:17:14.709Z,1.12
2023-04-06T07:19:42.360Z,1.30
2023-04-06T07:22:09.083Z,1.50
2023-04-06T07:24:35.866Z,1.62
2023-04-06T07:27:02.826Z,1.79
2023-04-06T07:29:29.964Z,1.97
2023-04-06T07:31:56.829Z,2.16
2023-04-06T07:34:27.176Z,2.24
2023-04-06T07:36:54.826Z,2.38
2023-04-06T07:39:21.516Z,2.54
2023-04-06T07:41:50.801Z,2.63
2023-04-06T07:44:17.511Z,2.75
2023-04-06T07:46:44.128Z,2.89
2023-04-06T07:49:10.774Z,2.98
2023-04-06T07:51:39.791Z,3.03
2023-04-06T07:54:07.002Z,3.23
2023-04-06T07:56:33.902Z,3.30
2023-04-06T07:59:00.760Z,3.50
2023-04-06T08:01:29.334Z,3.70
2023-04-06T08:03:57.957Z,3.78
2023-04-06T08:06:24.866Z,3.93
2023-04-06T08:08:51.574Z,4.12
2023-04-06T08:11:18.300Z,4.28
2023-04-06T08:13:44.921Z,4.43
2023-04-06T08:16:13.886Z,4.53
2023-04-06T08:18:40.561Z,4.68
2023-04-06T08:21:07.216Z,4.80
2023-04-06T08:23:33.841Z,4.94
2023-04-06T08:26:00.527Z,5.15
2023-04-06T08:28:27.227Z,5.18
2023-04-06T08:30:53.964Z,5.27
2023-04-06T08:33:20.825Z,5.32
2023-04-06T08:35:47.518Z,5.43
2023-04-06T08:38:14.322Z,5.56
2023-04-06T08:40:41.588Z,5.69
2023-04-06T08:43:13.901Z,5.84
2023-04-06T08:45:43.564Z,5.91
2023-04-06T08:48:12.681Z,6.02
2023-04-06T08:50:41.484Z,6.14
2023-04-06T08:53:09.142Z,6.15
2023-04-06T08:55:37.395Z,6.38
2023-04-06T08:58:07.604Z,6.40
2023-04-06T09:00:38.173Z,6.48
2023-04-06T09:03:07.412Z,6.60
2023-04-06T09:05:34.641Z,6.63
2023-04-06T09:08:01.294Z,6.86
2023-04-06T09:10:29.843Z,6.89
2023-04-06T09:13:09.887Z,7.01
2023-04-06T09:15:36.722Z,7.19
2023-04-06T09:18:03.432Z,7.25
2023-04-06T09:20:30.389Z,7.22
2023-04-06T09:22:57.383Z,7.31
2023-04-06T09:25:29.178Z,7.46
2023-04-06T09:28:09.511Z,7.59
2023-04-06T09:30:36.980Z,7.75
2023-04-06T09:33:03.863Z,7.87
2023-04-06T09:35:32.244Z,8.01
2023-04-06T09:37:58.920Z,8.21
2023-04-06T09:40:26.185Z,8.39
2023-04-06T09:42:53.957Z,8.47
2023-04-06T09:45:21.941Z,8.64
2023-04-06T09:47:50.976Z,8.81
2023-04-06T09:50:20.245Z,9.05
2023-04-06T09:52:56.939Z,9.19
2023-04-06T09:55:44.457Z,9.16
2023-04-06T09:58:18.273Z,9.36
2023-04-06T10:01:16.359Z,9.45
2023-04-06T10:04:02.870Z,9.45
2023-04-06T10:06:46.237Z,9.40
2023-04-06T10:09:14.804Z,9.43
2023-04-06T10:11:42.692Z,9.53
2023-04-06T10:14:12.508Z,9.61
2023-04-06T10:16:39.472Z,9.74
2023-04-06T10:19:19.831Z,9.86
2023-04-06T10:21:55.179Z,10.06
2023-04-06T10:24:22.015Z,10.18
2023-04-06T10:27:07.905Z,10.32
2023-04-06T10:29:45.343Z,10.53
2023-04-06T10:32:12.283Z,10.67
2023-04-06T10:34:39.065Z,10.80
2023-04-06T10:37:14.871Z,10.86
2023-04-06T10:39:59.402Z,11.02
2023-04-06T10:42:26.865Z,11.10
2023-04-06T10:44:53.542Z,11.16
2023-04-06T10:47:20.486Z,11.15
2023-04-06T10:49:47.304Z,11.20
2023-04-06T10:52:14.131Z,11.45
2023-04-06T10:54:48.977Z,11.76
2023-04-06T10:57:17.081Z,11.94
2023-04-06T10:59:45.517Z,11.78
2023-04-06T11:02:22.308Z,11.35
2023-04-06T11:04:59.359Z,11.27
2023-04-06T11:07:27.931Z,11.34
2023-04-06T11:10:12.596Z,11.27
2023-04-06T11:12:41.437Z,11.04
2023-04-06T11:15:08.784Z,11.15
2023-04-06T11:17:37.969Z,11.46
2023-04-06T11:20:11.211Z,11.76
2023-04-06T11:22:48.522Z,12.02
2023-04-06T11:25:15.130Z,12.30
2023-04-06T11:27:41.920Z,12.47
2023-04-06T11:30:09.639Z,12.52
2023-04-06T11:32:46.918Z,12.62
2023-04-06T11:35:24.574Z,12.74
2023-04-06T11:37:52.361Z,12.93
2023-04-06T11:40:23.760Z,12.59
2023-04-06T11:42:56.960Z,12.33
2023-04-06T11:45:24.298Z,12.34
2023-04-06T11:48:01.523Z,12.43
2023-04-06T11:50:37.165Z,12.75
2023-04-06T11:53:04.241Z,12.66
2023-04-06T11:55:39.553Z,12.80
2023-04-06T11:58:06.395Z,13.05
2023-04-06T12:00:35.686Z,12.98
2023-04-06T12:03:02.418Z,12.70
2023-04-06T12:05:29.509Z,12.68
2023-04-06T12:07:56.985Z,12.72
2023-04-06T12:10:24.787Z,12.64
2023-04-06T12:12:51.404Z,12.70
2023-04-06T12:15:18.081Z,12.54
2023-04-06T12:17:44.862Z,12.59
2023-04-06T12:20:22.623Z,12.52
2023-04-06T12:22:53.046Z,12.43
2023-04-06T12:25:19.869Z,12.65
2023-04-06T12:27:46.630Z,12.93
2023-04-06T12:30:13.862Z,13.10
2023-04-06T12:32:40.797Z,13.24
2023-04-06T12:35:09.787Z,13.24
2023-04-06T12:37:36.516Z,13.37
2023-04-06T12:40:04.270Z,13.37
2023-04-06T12:42:31.517Z,13.59
2023-04-06T12:44:58.178Z,13.62
2023-04-06T12:47:27.420Z,13.73
2023-04-06T12:49:55.073Z,13.52
2023-04-06T12:52:21.843Z,13.32
2023-04-06T12:54:50.062Z,13.12
2023-04-06T12:57:18.137Z,13.28
2023-04-06T12:59:45.741Z,13.42
2023-04-06T13:02:12.731Z,13.58
2023-04-06T13:04:39.598Z,13.61
2023-04-06T13:07:06.713Z,13.55
2023-04-06T13:09:33.367Z,13.68
2023-04-06T13:12:00.472Z,13.59
2023-04-06T13:14:27.121Z,13.68
2023-04-06T13:16:53.768Z,13.63
2023-04-06T13:19:20.807Z,13.73
2023-04-06T13:21:47.690Z,13.93
2023-04-06T13:24:16.425Z,14.11
2023-04-06T13:26:44.281Z,13.77
2023-04-06T13:29:11.002Z,13.58
2023-04-06T13:31:38.101Z,13.57
2023-04-06T13:34:04.780Z,13.74
2023-04-06T13:36:32.639Z,13.92
2023-04-06T13:38:59.643Z,14.10
2023-04-06T13:41:27.512Z,14.13
2023-04-06T13:43:54.307Z,14.07
2023-04-06T13:46:21.381Z,14.13
2023-04-06T13:48:48.965Z,14.02
2023-04-06T13:51:16.366Z,13.93
2023-04-06T13:53:43.294Z,13.94
2023-04-06T13:56:10.397Z,13.99
2023-04-06T13:58:37.301Z,14.10
2023-04-06T14:01:10.579Z,13.73
2023-04-06T14:03:37.891Z,13.81
2023-04-06T14:06:29.522Z,13.82
2023-04-06T14:08:58.194Z,13.86
2023-04-06T14:11:25.077Z,13.99
2023-04-06T14:13:51.800Z,14.08
2023-04-06T14:16:20.667Z,14.04
2023-04-06T14:18:47.327Z,13.93
2023-04-06T14:21:15.817Z,13.95
2023-04-06T14:23:42.774Z,14.03
2023-04-06T14:26:09.928Z,13.86
2023-04-06T14:28:36.990Z,13.67
2023-04-06T14:31:13.212Z,13.46
2023-04-06T14:33:40.929Z,13.61
2023-04-06T14:36:08.240Z,13.80
2023-04-06T14:38:35.475Z,13.87
2023-04-06T14:41:02.371Z,13.69
2023-04-06T14:43:29.036Z,13.67
2023-04-06T14:45:55.768Z,13.58
2023-04-06T14:48:22.363Z,13.67
2023-04-06T14:50:58.722Z,13.71
2023-04-06T14:53:26.063Z,13.72
2023-04-06T14:55:53.446Z,13.61
2023-04-06T14:58:21.261Z,13.54
2023-04-06T15:00:48.827Z,13.53
2023-04-06T15:03:16.607Z,13.48
2023-04-06T15:05:43.366Z,13.25
2023-04-06T15:08:10.420Z,13.21
2023-04-06T15:10:37.332Z,13.21
2023-04-06T15:13:04.108Z,13.11
2023-04-06T15:15:31.026Z,12.86
2023-04-06T15:17:57.778Z,12.76
2023-04-06T15:20:24.527Z,12.65
2023-04-06T15:22:51.315Z,12.72
2023-04-06T15:25:18.283Z,12.83
2023-04-06T15:27:45.305Z,12.87
2023-04-06T15:30:12.345Z,12.73
2023-04-06T15:32:39.174Z,12.79
2023-04-06T15:35:12.682Z,12.69
2023-04-06T15:37:40.096Z,12.62
2023-04-06T15:40:08.231Z,12.67
2023-04-06T15:42:34.851Z,12.78
2023-04-06T15:45:01.719Z,12.67
2023-04-06T15:47:28.374Z,12.66
2023-04-06T15:49:55.026Z,12.52
2023-04-06T15:52:22.859Z,12.49
2023-04-06T15:54:49.987Z,12.44
2023-04-06T15:57:16.553Z,12.50
2023-04-06T15:59:43.391Z,12.59
2023-04-06T16:02:10.104Z,12.63
2023-04-06T16:04:36.900Z,12.63
2023-04-06T16:07:03.981Z,12.54
2023-04-06T16:09:30.881Z,12.59
2023-04-06T16:11:57.650Z,12.54
2023-04-06T16:14:24.261Z,12.25
2023-04-06T16:16:51.280Z,12.02
2023-04-06T16:19:18.523Z,11.94
2023-04-06T16:21:45.752Z,12.06
2023-04-06T16:24:12.407Z,12.12
2023-04-06T16:26:39.933Z,12.10
2023-04-06T16:29:06.572Z,12.07
2023-04-06T16:31:33.224Z,11.97
2023-04-06T16:33:59.946Z,11.93
2023-04-06T16:36:32.059Z,11.90
2023-04-06T16:39:01.137Z,11.87
2023-04-06T16:41:28.754Z,11.80
2023-04-06T16:43:57.477Z,11.72
2023-04-06T16:46:32.309Z,11.63
2023-04-06T16:49:04.988Z,11.65
2023-04-06T16:51:32.382Z,11.66
2023-04-06T16:53:59.471Z,11.62
2023-04-06T16:56:26.101Z,11.54
2023-04-06T16:58:52.675Z,11.52
2023-04-06T17:01:27.095Z,11.27
2023-04-06T17:03:55.437Z,11.18
2023-04-06T17:06:22.972Z,11.14
2023-04-06T17:08:50.653Z,11.09
2023-04-06T17:11:20.555Z,10.88
2023-04-06T17:13:50.707Z,10.78
2023-04-06T17:16:18.240Z,10.68
2023-04-06T17:18:44.968Z,10.53
2023-04-06T17:21:14.460Z,10.44
2023-04-06T17:23:41.548Z,10.44
2023-04-06T17:26:08.439Z,10.39
2023-04-06T17:28:35.415Z,10.23
2023-04-06T17:31:02.086Z,10.15
2023-04-06T17:33:29.316Z,10.02
2023-04-06T17:35:56.006Z,10.08
2023-04-06T17:38:23.926Z,10.03
2023-04-06T17:40:50.764Z,9.82
2023-04-06T17:43:17.907Z,9.72
2023-04-06T17:45:44.912Z,9.65
2023-04-06T17:48:11.463Z,9.56
2023-04-06T17:50:41.268Z,9.55
2023-04-06T17:53:08.490Z,9.57
2023-04-06T17:55:36.406Z,9.46
2023-04-06T17:58:03.731Z,9.41
2023-04-06T18:00:30.561Z,9.37
2023-04-06T18:02:57.544Z,9.27
2023-04-06T18:05:28.405Z,9.29
2023-04-06T18:07:57.645Z,9.27
2023-04-06T18:10:24.915Z,9.37
2023-04-06T18:12:51.500Z,9.37
2023-04-06T18:15:18.238Z,9.40
2023-04-06T18:17:47.962Z,9.39
2023-04-06T18:20:15.829Z,9.38
2023-04-06T18:22:43.081Z,9.33
2023-04-06T18:25:09.999Z,9.21
2023-04-06T18:27:36.632Z,9.12
2023-04-06T18:30:04.872Z,9.04
2023-04-06T18:32:31.632Z,9.08
2023-04-06T18:34:58.648Z,9.15
2023-04-06T18:37:26.165Z,9.13
2023-04-06T18:39:54.353Z,9.01
2023-04-06T18:42:21.316Z,8.99
2023-04-06T18:44:48.345Z,8.92
2023-04-06T18:47:15.647Z,8.94
2023-04-06T18:49:42.421Z,8.93
2023-04-06T18:52:09.064Z,8.67
2023-04-06T18:54:35.747Z,8.57
2023-04-06T18:57:02.453Z,8.61
2023-04-06T18:59:30.458Z,8.58
2023-04-06T19:01:57.567Z,8.46
2023-04-06T19:04:24.451Z,8.49
2023-04-06T19:06:51.187Z,8.41
2023-04-06T19:09:17.849Z,8.34
2023-04-06T19:11:44.491Z,8.36
2023-04-06T19:14:11.323Z,8.45
2023-04-06T19:16:41.208Z,8.46
2023-04-06T19:19:08.160Z,8.32
2023-04-06T19:21:34.838Z,8.40
2023-04-06T19:24:01.502Z,8.45
2023-04-06T19:26:30.355Z,8.49
2023-04-06T19:28:57.081Z,8.45
2023-04-06T19:31:24.211Z,8.50
2023-04-06T19:33:50.880Z,8.48
2023-04-06T19:36:17.501Z,8.43
2023-04-06T19:38:44.086Z,8.44
2023-04-06T19:41:10.997Z,8.26
2023-04-06T19:43:37.859Z,8.14
2023-04-06T19:46:04.999Z,8.07
2023-04-06T19:48:33.871Z,7.96
2023-04-06T19:51:00.847Z,7.90
2023-04-06T19:53:27.569Z,7.97
2023-04-06T19:55:54.181Z,7.91
2023-04-06T19:58:21.541Z,8.08
2023-04-06T20:00:48.191Z,7.99
2023-04-06T20:03:15.825Z,7.90
2023-04-06T20:05:42.601Z,7.99
2023-04-06T20:08:09.243Z,8.08
2023-04-06T20:10:36.426Z,8.07
2023-04-06T20:13:03.135Z,8.03
2023-04-06T20:15:30.683Z,8.07
2023-04-06T20:17:57.308Z,8.06
2023-04-06T20:20:24.042Z,8.11
2023-04-06T20:22:50.587Z,8.10
2023-04-06T20:25:18.736Z,8.02
2023-04-06T20:27:45.857Z,8.01
2023-04-06T20:30:16.496Z,8.05
2023-04-06T20:32:43.201Z,8.01
2023-04-06T20:35:12.331Z,7.93
2023-04-06T20:37:43.673Z,7.84
2023-04-06T20:40:11.589Z,7.59
2023-04-06T20:42:39.096Z,7.60
2023-04-06T20:45:06.847Z,7.74
2023-04-06T20:47:42.216Z,7.81
2023-04-06T20:50:09.112Z,7.79
2023-04-06T20:52:36.345Z,7.82
2023-04-06T20:55:06.995Z,7.78
2023-04-06T20:57:33.578Z,7.85
2023-04-06T21:00:00.265Z,7.89
2023-04-06T21:02:27.064Z,7.75
2023-04-06T21:04:53.941Z,7.64
2023-04-06T21:07:20.688Z,7.68
2023-04-06T21:09:47.349Z,7.78
2023-04-06T21:12:13.917Z,7.81
2023-04-06T21:14:43.180Z,7.77
2023-04-06T21:17:09.793Z,7.83
2023-04-06T21:19:39.308Z,7.71
2023-04-06T21:22:05.847Z,7.69
2023-04-06T21:24:32.387Z,7.69
2023-04-06T21:27:04.827Z,7.70
2023-04-06T21:29:32.491Z,7.73
2023-04-06T21:31:59.097Z,7.74
2023-04-06T21:34:25.857Z,7.76
2023-04-06T21:36:52.471Z,7.90
2023-04-06T21:39:19.218Z,7.82
2023-04-06T21:41:45.930Z,7.77
2023-04-06T21:44:12.443Z,7.76
2023-04-06T21:46:39.016Z,7.69
2023-04-06T21:49:05.573Z,7.55
2023-04-06T21:51:32.299Z,7.59
2023-04-06T21:53:58.829Z,7.63
2023-04-06T21:56:26.311Z,7.62
2023-04-06T21:58:53.885Z,7.54
2023-04-06T22:01:21.279Z,7.57
2023-04-06T22:03:48.224Z,7.54
2023-04-06T22:06:15.195Z,7.57
2023-04-06T22:08:42.666Z,7.51
2023-04-06T22:11:13.840Z,7.56
2023-04-06T22:13:40.624Z,7.56
2023-04-06T22:16:07.944Z,7.47
2023-04-06T22:18:36.654Z,7.49
2023-04-06T22:21:08.381Z,7.48
2023-04-06T22:23:35.943Z,7.37
2023-04-06T22:26:05.349Z,7.38
2023-04-06T22:28:31.880Z,7.45
2023-04-06T22:30:58.412Z,7.45
2023-04-06T22:33:25.471Z,7.49
2023-04-06T22:35:52.088Z,7.54
2023-04-06T22:38:18.690Z,7.58
2023-04-06T22:40:53.732Z,7.58
2023-04-06T22:43:32.584Z,7.45
2023-04-06T22:45:59.136Z,7.44
2023-04-06T22:48:25.772Z,7.53
2023-04-06T22:50:52.611Z,7.59
2023-04-06T22:53:30.354Z,7.57
2023-04-06T22:55:57.030Z,7.52
2023-04-06T22:58:23.614Z,7.54
2023-04-06T23:00:50.454Z,7.57
2023-04-06T23:03:17.121Z,7.60
2023-04-06T23:05:43.723Z,7.63
2023-04-06T23:08:10.276Z,7.66
2023-04-06T23:10:38.563Z,7.58
2023-04-06T23:13:05.347Z,7.67
2023-04-06T23:15:32.918Z,7.74
2023-04-06T23:18:00.097Z,7.75
2023-04-06T23:20:26.776Z,7.74
2023-04-06T23:22:53.613Z,7.65
2023-04-06T23:25:20.343Z,7.59
2023-04-06T23:27:46.917Z,7.65
2023-04-06T23:30:13.588Z,7.70
2023-04-06T23:32:40.545Z,7.72
2023-04-06T23:35:08.038Z,7.77
2023-04-06T23:37:35.128Z,7.84
2023-04-06T23:40:02.035Z,7.79
2023-04-06T23:42:31.479Z,7.70
2023-04-06T23:45:01.582Z,7.76
2023-04-06T23:47:28.278Z,7.73
2023-04-06T23:49:56.263Z,7.70
2023-04-06T23:52:22.793Z,7.74
2023-04-06T23:54:49.405Z,7.79
2023-04-06T23:57:16.116Z,7.75
2023-04-06T23:59:42.712Z,7.77
